createdAt,value
2022-08-17T00:01:27.177Z,1.92
2022-08-17T00:03:55.275Z,2.12
2022-08-17T00:06:30.857Z,2.00
2022-08-17T00:09:02.253Z,2.15
2022-08-17T00:11:37.748Z,2.40
2022-08-17T00:14:16.262Z,2.15
2022-08-17T00:16:55.383Z,2.37
2022-08-17T00:19:23.114Z,2.50
2022-08-17T00:22:32.649Z,2.50
2022-08-17T00:24:25.004Z,2.50
2022-08-17T00:26:52.880Z,2.85
2022-08-17T00:29:20.626Z,4.72
2022-08-17T00:31:49.545Z,3.33
2022-08-17T00:34:17.693Z,3.87
2022-08-17T00:36:45.552Z,3.75
2022-08-17T00:39:13.240Z,3.55
2022-08-17T00:41:42.563Z,4.67
2022-08-17T00:44:11.706Z,6.12
2022-08-17T00:46:42.322Z,8.73
2022-08-17T00:49:12.880Z,5.42
2022-08-17T00:51:56.946Z,4.58
2022-08-17T00:54:29.152Z,2.83
2022-08-17T00:57:08.331Z,2.90
2022-08-17T00:59:44.373Z,2.92
2022-08-17T01:02:15.955Z,3.60
2022-08-17T01:04:46.427Z,3.27
2022-08-17T01:07:15.425Z,4.10
2022-08-17T01:09:44.060Z,3.08
2022-08-17T01:12:12.314Z,3.25
2022-08-17T01:14:41.105Z,2.80
2022-08-17T01:17:09.679Z,2.60
2022-08-17T01:19:41.370Z,3.22
2022-08-17T01:22:16.095Z,2.70
2022-08-17T01:24:49.203Z,2.42
2022-08-17T01:27:18.512Z,2.90
2022-08-17T01:29:52.549Z,2.77
2022-08-17T01:32:20.181Z,2.80
2022-08-17T01:34:50.416Z,3.50
2022-08-17T01:37:20.973Z,3.47
2022-08-17T01:39:53.116Z,3.98
2022-08-17T01:42:32.397Z,3.77
2022-08-17T01:45:11.080Z,3.58
2022-08-17T01:47:38.760Z,3.45
2022-08-17T01:50:15.458Z,3.90
2022-08-17T01:52:45.670Z,4.12
2022-08-17T01:55:17.056Z,5.33
2022-08-17T01:57:45.110Z,5.05
2022-08-17T02:00:14.193Z,5.28
2022-08-17T02:02:44.017Z,4.37
2022-08-17T02:05:12.129Z,3.80
2022-08-17T02:07:59.892Z,4.30
2022-08-17T02:10:20.295Z,5.58
2022-08-17T02:12:50.188Z,5.78
2022-08-17T02:15:25.578Z,5.37
2022-08-17T02:17:57.451Z,5.45
2022-08-17T02:20:41.934Z,6.80
2022-08-17T02:22:58.413Z,6.03
2022-08-17T02:25:34.317Z,5.67
2022-08-17T02:28:08.672Z,4.35
2022-08-17T02:31:01.410Z,3.35
2022-08-17T02:33:17.226Z,3.52
2022-08-17T02:35:52.947Z,3.58
2022-08-17T02:38:20.695Z,4.00
2022-08-17T02:40:48.688Z,9.50
2022-08-17T02:43:17.779Z,3.83
2022-08-17T02:45:45.423Z,3.45
2022-08-17T02:48:13.219Z,4.00
2022-08-17T02:50:40.847Z,3.70
2022-08-17T02:53:08.468Z,3.00
2022-08-17T02:55:39.836Z,3.00
2022-08-17T02:58:10.114Z,2.95
2022-08-17T03:00:42.312Z,2.40
2022-08-17T03:03:13.086Z,2.40
2022-08-17T03:05:41.358Z,2.10
2022-08-17T03:08:12.971Z,3.30
2022-08-17T03:10:39.207Z,1.92
2022-08-17T03:13:06.847Z,2.05
2022-08-17T03:15:35.344Z,2.50
2022-08-17T03:18:03.405Z,2.10
2022-08-17T03:20:32.542Z,2.40
2022-08-17T03:23:02.005Z,2.33
2022-08-17T03:25:35.059Z,2.08
2022-08-17T03:28:04.864Z,2.30
2022-08-17T03:30:33.306Z,2.50
2022-08-17T03:33:05.903Z,2.55
2022-08-17T03:35:35.999Z,2.33
2022-08-17T03:38:04.512Z,2.50
2022-08-17T03:40:55.500Z,2.47
2022-08-17T03:43:09.142Z,2.72
2022-08-17T03:45:56.143Z,2.70
2022-08-17T03:48:42.487Z,3.02
2022-08-17T03:51:34.187Z,3.40
2022-08-17T03:54:20.521Z,3.52
2022-08-17T03:57:05.212Z,3.58
2022-08-17T03:59:34.356Z,4.10
2022-08-17T04:02:11.024Z,3.52
2022-08-17T04:04:39.344Z,3.08
2022-08-17T04:07:07.934Z,3.70
2022-08-17T04:09:36.068Z,3.02
2022-08-17T04:12:05.222Z,3.30
2022-08-17T04:14:36.017Z,3.92
2022-08-17T04:17:05.865Z,2.90
2022-08-17T04:19:33.841Z,2.95
2022-08-17T04:22:01.568Z,2.98
2022-08-17T04:24:29.362Z,2.83
2022-08-17T04:26:56.983Z,2.70
2022-08-17T04:29:25.703Z,2.67
2022-08-17T04:31:55.293Z,2.42
2022-08-17T04:34:24.371Z,2.50
2022-08-17T04:36:52.479Z,2.60
2022-08-17T04:39:20.037Z,2.83
2022-08-17T04:42:06.003Z,2.50
2022-08-17T04:44:37.397Z,2.42
2022-08-17T04:47:06.785Z,2.35
2022-08-17T04:49:37.100Z,2.45
2022-08-17T04:52:05.168Z,2.10
2022-08-17T04:54:32.950Z,2.40
2022-08-17T04:57:00.692Z,2.10
2022-08-17T04:59:28.296Z,2.55
2022-08-17T05:01:55.965Z,2.50
2022-08-17T05:04:34.229Z,2.58
2022-08-17T05:06:55.269Z,3.50
2022-08-17T05:09:22.959Z,2.33
2022-08-17T05:11:52.441Z,2.60
2022-08-17T05:14:22.064Z,2.58
2022-08-17T05:16:51.556Z,2.90
2022-08-17T05:19:19.225Z,2.83
2022-08-17T05:21:46.947Z,3.52
2022-08-17T05:24:38.488Z,3.87
2022-08-17T05:26:44.240Z,3.20
2022-08-17T05:29:11.869Z,3.30
2022-08-17T05:31:39.648Z,4.22
2022-08-17T05:34:07.250Z,3.90
2022-08-17T05:36:43.364Z,2.70
2022-08-17T05:39:04.605Z,2.65
2022-08-17T05:41:32.054Z,2.50
2022-08-17T05:43:59.564Z,2.72
2022-08-17T05:46:34.533Z,2.33
2022-08-17T05:49:07.661Z,2.40
2022-08-17T05:52:10.098Z,2.35
2022-08-17T05:54:58.444Z,2.27
2022-08-17T05:57:53.639Z,2.60
2022-08-17T06:00:26.487Z,2.98
2022-08-17T06:03:35.590Z,2.87
2022-08-17T06:06:25.116Z,3.15
2022-08-17T06:09:07.427Z,3.37
2022-08-17T06:11:40.614Z,2.83
2022-08-17T06:14:28.819Z,2.98
2022-08-17T06:17:08.066Z,3.10
2022-08-17T06:19:56.069Z,3.40
2022-08-17T06:22:32.647Z,3.20
2022-08-17T06:25:20.761Z,3.42
2022-08-17T06:28:05.189Z,3.50
2022-08-17T06:30:58.296Z,3.50
2022-08-17T06:33:13.364Z,3.90
2022-08-17T06:35:55.465Z,3.83
2022-08-17T06:38:49.416Z,3.55
2022-08-17T06:41:52.072Z,4.00
2022-08-17T06:44:43.312Z,5.12
2022-08-17T06:47:08.983Z,6.12
2022-08-17T06:49:55.269Z,9.73
2022-08-17T06:52:45.438Z,10.75
2022-08-17T06:55:08.883Z,7.78
2022-08-17T06:57:46.774Z,11.80
2022-08-17T07:00:22.723Z,15.48
2022-08-17T07:03:15.065Z,20.60
2022-08-17T07:05:51.253Z,12.37
2022-08-17T07:08:37.478Z,10.18
2022-08-17T07:11:12.930Z,9.20
2022-08-17T07:13:56.978Z,6.50
2022-08-17T07:16:40.675Z,4.55
2022-08-17T07:19:11.028Z,7.03
2022-08-17T07:21:59.170Z,6.42
2022-08-17T07:24:44.758Z,5.65
2022-08-17T07:27:20.806Z,4.10
2022-08-17T07:30:08.131Z,3.37
2022-08-17T07:32:47.920Z,3.17
2022-08-17T07:35:40.783Z,3.83
2022-08-17T07:38:25.185Z,3.30
2022-08-17T07:41:00.195Z,3.05
2022-08-17T07:43:36.189Z,2.58
2022-08-17T07:46:44.980Z,3.15
2022-08-17T07:49:18.518Z,3.02
2022-08-17T07:51:51.443Z,2.77
2022-08-17T07:54:36.753Z,3.02
2022-08-17T07:57:25.360Z,3.42
2022-08-17T08:00:16.471Z,3.47
2022-08-17T08:02:48.928Z,2.92
2022-08-17T08:05:50.420Z,2.77
2022-08-17T08:08:04.156Z,2.65
2022-08-17T08:10:42.532Z,2.40
2022-08-17T08:13:23.113Z,2.20
2022-08-17T08:15:58.874Z,2.37
2022-08-17T08:18:53.890Z,2.65
2022-08-17T08:21:11.168Z,2.98
2022-08-17T08:23:42.452Z,3.00
2022-08-17T08:26:34.716Z,3.00
2022-08-17T08:29:22.106Z,2.85
2022-08-17T08:32:36.748Z,3.30
2022-08-17T08:35:12.847Z,2.90
2022-08-17T08:37:55.167Z,3.25
2022-08-17T08:40:40.459Z,3.47
2022-08-17T08:44:00.414Z,3.33
2022-08-17T08:46:40.123Z,3.12
2022-08-17T08:49:59.000Z,3.00
2022-08-17T08:52:01.371Z,2.95
2022-08-17T08:54:46.678Z,3.00
2022-08-17T08:57:30.757Z,3.27
2022-08-17T09:00:11.169Z,3.80
2022-08-17T09:03:03.658Z,3.85
2022-08-17T09:05:48.852Z,3.47
2022-08-17T09:08:27.847Z,4.10
2022-08-17T09:11:10.308Z,3.85
2022-08-17T09:14:01.161Z,3.70
2022-08-17T09:16:40.983Z,4.00
2022-08-17T09:19:20.033Z,3.83
2022-08-17T09:21:55.723Z,3.85
2022-08-17T09:24:37.299Z,3.58
2022-08-17T09:27:18.483Z,3.50
2022-08-17T09:29:55.989Z,3.83
2022-08-17T09:32:41.194Z,3.37
2022-08-17T09:35:32.765Z,3.70
2022-08-17T09:38:19.444Z,3.35
2022-08-17T09:41:15.470Z,3.15
2022-08-17T09:44:00.431Z,3.27
2022-08-17T09:46:38.905Z,3.67
2022-08-17T09:49:32.509Z,3.47
2022-08-17T09:54:40.866Z,3.40
2022-08-17T09:57:30.332Z,3.85
2022-08-17T10:00:11.237Z,3.22
2022-08-17T10:03:00.059Z,3.70
2022-08-17T10:06:02.244Z,3.65
2022-08-17T10:09:01.085Z,3.67
2022-08-17T10:12:10.821Z,3.60
2022-08-17T10:14:56.136Z,3.67
2022-08-17T10:17:55.921Z,3.50
2022-08-17T10:20:29.713Z,3.50
2022-08-17T10:23:21.578Z,4.05
2022-08-17T10:26:15.352Z,3.80
2022-08-17T10:28:53.615Z,3.77
2022-08-17T10:31:35.995Z,3.80
2022-08-17T10:34:38.741Z,3.65
2022-08-17T10:37:48.369Z,4.20
2022-08-17T10:40:27.293Z,3.93
2022-08-17T10:43:00.523Z,3.77
2022-08-17T10:46:13.369Z,3.90
2022-08-17T10:48:38.419Z,4.10
2022-08-17T10:51:13.918Z,3.77
2022-08-17T10:53:48.059Z,3.80
2022-08-17T10:56:22.320Z,4.95
2022-08-17T10:58:56.850Z,4.12
2022-08-17T11:01:41.196Z,4.10
2022-08-17T11:04:21.005Z,4.10
2022-08-17T11:07:03.442Z,4.05
2022-08-17T11:09:39.469Z,4.10
2022-08-17T11:13:00.785Z,3.40
2022-08-17T11:15:46.646Z,3.33
2022-08-17T11:18:31.531Z,3.92
2022-08-17T11:21:31.338Z,4.35
2022-08-17T11:24:38.286Z,4.28
2022-08-17T11:27:26.192Z,4.00
2022-08-17T11:30:02.246Z,4.58
2022-08-17T11:32:54.720Z,4.15
2022-08-17T11:35:29.261Z,4.78
2022-08-17T11:38:16.849Z,4.85
2022-08-17T11:41:11.530Z,4.72
2022-08-17T11:44:05.538Z,4.47
2022-08-17T11:47:18.252Z,4.70
2022-08-17T11:50:40.401Z,4.50
2022-08-17T11:53:38.021Z,5.10
2022-08-17T11:56:10.946Z,4.90
2022-08-17T11:58:45.559Z,4.70
2022-08-17T12:01:28.788Z,4.65
2022-08-17T12:04:18.322Z,4.83
2022-08-17T12:06:54.386Z,5.20
2022-08-17T12:09:27.508Z,4.90
2022-08-17T12:15:08.469Z,4.95
2022-08-17T12:17:11.690Z,5.35
2022-08-17T12:19:42.706Z,5.50
2022-08-17T12:22:32.841Z,5.12
2022-08-17T12:25:15.653Z,4.92
2022-08-17T12:28:05.591Z,5.25
2022-08-17T12:30:21.911Z,5.22
2022-08-17T12:32:50.448Z,5.00
2022-08-17T12:35:35.415Z,5.28
2022-08-17T12:38:31.833Z,4.70
2022-08-17T12:40:37.415Z,4.92
2022-08-17T12:43:10.910Z,4.45
2022-08-17T12:45:39.717Z,4.78
2022-08-17T12:48:14.950Z,5.20
2022-08-17T12:50:45.351Z,4.72
2022-08-17T12:53:20.658Z,4.92
2022-08-17T12:55:50.286Z,4.60
2022-08-17T12:58:26.167Z,4.65
2022-08-17T13:01:11.906Z,4.65
2022-08-17T13:03:50.956Z,5.10
2022-08-17T13:06:34.635Z,4.67
2022-08-17T13:09:17.035Z,4.60
2022-08-17T13:11:54.672Z,4.28
2022-08-17T13:14:22.613Z,4.58
2022-08-17T13:16:59.012Z,4.50
2022-08-17T13:19:39.945Z,4.75
2022-08-17T13:22:01.554Z,4.50
2022-08-17T13:24:38.578Z,4.30
2022-08-17T13:27:08.674Z,4.50
2022-08-17T13:29:52.801Z,4.65
2022-08-17T13:32:39.889Z,4.25
2022-08-17T13:35:40.089Z,4.30
2022-08-17T13:38:11.293Z,4.10
2022-08-17T13:40:50.003Z,4.08
2022-08-17T13:43:44.724Z,4.70
2022-08-17T13:46:23.819Z,4.58
2022-08-17T13:49:05.733Z,5.08
2022-08-17T13:51:44.133Z,4.62
2022-08-17T13:54:36.841Z,5.05
2022-08-17T13:57:18.598Z,5.15
2022-08-17T13:59:54.673Z,5.12
2022-08-17T14:02:20.485Z,4.60
2022-08-17T14:04:48.374Z,4.80
2022-08-17T14:07:21.372Z,4.60
2022-08-17T14:09:54.474Z,5.40
2022-08-17T14:12:26.252Z,5.45
2022-08-17T14:14:55.901Z,4.83
2022-08-17T14:17:24.377Z,4.97
2022-08-17T14:19:52.826Z,4.50
2022-08-17T14:22:31.184Z,4.90
2022-08-17T14:25:01.245Z,5.22
2022-08-17T14:27:32.521Z,4.65
2022-08-17T14:30:01.691Z,6.05
2022-08-17T14:32:36.292Z,6.17
2022-08-17T14:35:05.833Z,5.28
2022-08-17T14:37:33.997Z,4.90
2022-08-17T14:40:05.997Z,6.22
2022-08-17T14:42:37.072Z,7.47
2022-08-17T14:45:29.607Z,7.28
2022-08-17T14:47:41.252Z,6.75
2022-08-17T14:50:13.164Z,7.35
2022-08-17T14:52:42.874Z,7.20
2022-08-17T14:55:12.488Z,6.28
2022-08-17T14:57:41.762Z,5.85
2022-08-17T15:00:10.320Z,8.33
2022-08-17T15:02:53.477Z,4.97
2022-08-17T15:05:24.740Z,4.53
2022-08-17T15:07:53.070Z,7.20
2022-08-17T15:10:21.337Z,6.22
2022-08-17T15:12:49.141Z,5.03
2022-08-17T15:15:18.020Z,4.30
2022-08-17T15:17:46.261Z,4.92
2022-08-17T15:20:20.197Z,4.30
2022-08-17T15:22:49.174Z,3.92
2022-08-17T15:25:19.090Z,3.98
2022-08-17T15:27:46.923Z,4.15
2022-08-17T15:30:15.016Z,4.00
2022-08-17T15:32:51.405Z,4.42
2022-08-17T15:35:14.081Z,4.17
2022-08-17T15:37:41.888Z,4.65
2022-08-17T15:40:12.321Z,4.08
2022-08-17T15:42:40.766Z,4.42
2022-08-17T15:45:12.854Z,3.92
2022-08-17T15:47:42.104Z,4.50
2022-08-17T15:50:10.628Z,4.45
2022-08-17T15:52:39.927Z,5.20
2022-08-17T15:55:12.640Z,5.30
2022-08-17T15:57:40.854Z,4.95
2022-08-17T16:00:10.151Z,5.03
2022-08-17T16:03:13.776Z,5.55
2022-08-17T16:05:16.007Z,5.20
2022-08-17T16:07:45.395Z,5.47
2022-08-17T16:10:18.228Z,5.45
2022-08-17T16:12:47.399Z,5.62
2022-08-17T16:15:16.803Z,5.37
2022-08-17T16:17:44.791Z,5.15
2022-08-17T16:20:19.960Z,4.87
2022-08-17T16:22:46.039Z,5.10
2022-08-17T16:25:21.445Z,5.40
2022-08-17T16:27:53.510Z,5.60
2022-08-17T16:30:24.728Z,5.72
2022-08-17T16:32:54.609Z,5.80
2022-08-17T16:35:26.121Z,5.65
2022-08-17T16:37:56.605Z,5.95
2022-08-17T16:40:35.647Z,5.78
2022-08-17T16:43:01.106Z,5.53
2022-08-17T16:45:32.294Z,5.70
2022-08-17T16:48:01.101Z,5.08
2022-08-17T16:50:28.698Z,5.67
2022-08-17T16:53:06.752Z,4.60
2022-08-17T16:55:35.173Z,5.05
2022-08-17T16:58:05.837Z,5.05
2022-08-17T17:00:34.388Z,4.78
2022-08-17T17:03:20.523Z,5.62
2022-08-17T17:06:18.898Z,5.20
2022-08-17T17:08:59.118Z,4.90
2022-08-17T17:11:50.428Z,5.15
2022-08-17T17:14:27.936Z,5.20
2022-08-17T17:17:25.465Z,4.85
2022-08-17T17:20:16.158Z,4.75
2022-08-17T17:23:11.283Z,5.20
2022-08-17T17:25:54.177Z,4.95
2022-08-17T17:28:39.996Z,4.90
2022-08-17T17:31:25.460Z,4.85
2022-08-17T17:34:00.935Z,4.72
2022-08-17T17:36:39.792Z,5.70
2022-08-17T17:39:15.481Z,5.22
2022-08-17T17:41:56.820Z,5.70
2022-08-17T17:44:41.471Z,6.40
2022-08-17T17:47:09.692Z,6.20
2022-08-17T17:49:44.452Z,5.67
2022-08-17T17:52:46.657Z,6.37
2022-08-17T17:55:25.003Z,9.33
2022-08-17T17:58:23.768Z,8.60
2022-08-17T18:01:11.731Z,7.65
2022-08-17T18:03:50.683Z,7.17
2022-08-17T18:06:49.924Z,6.60
2022-08-17T18:09:33.849Z,6.10
2022-08-17T18:12:16.156Z,6.72
2022-08-17T18:15:16.389Z,6.78
2022-08-17T18:18:17.651Z,6.17
2022-08-17T18:20:53.687Z,5.22
2022-08-17T18:23:27.722Z,5.60
2022-08-17T18:25:53.946Z,6.17
2022-08-17T18:28:39.953Z,6.05
2022-08-17T18:31:20.439Z,6.58
2022-08-17T18:33:59.332Z,6.20
2022-08-17T18:36:32.099Z,6.25
2022-08-17T18:39:27.879Z,7.58
2022-08-17T18:41:59.096Z,7.12
2022-08-17T18:44:37.779Z,7.37
2022-08-17T18:47:16.207Z,7.40
2022-08-17T18:49:57.905Z,7.90
2022-08-17T18:52:32.442Z,6.75
2022-08-17T18:55:13.636Z,7.00
2022-08-17T18:57:55.470Z,6.22
2022-08-17T19:00:42.465Z,6.37
2022-08-17T19:03:24.699Z,6.37
2022-08-17T19:05:57.273Z,5.97
2022-08-17T19:08:33.018Z,8.43
2022-08-17T19:11:29.134Z,8.10
2022-08-17T19:14:12.846Z,9.25
2022-08-17T19:16:51.681Z,8.70
2022-08-17T19:19:27.285Z,8.18
2022-08-17T19:22:00.201Z,8.15
2022-08-17T19:24:31.362Z,7.85
2022-08-17T19:27:12.599Z,7.70
2022-08-17T19:30:08.053Z,7.30
2022-08-17T19:32:35.902Z,7.22
2022-08-17T19:35:07.829Z,7.42
2022-08-17T19:38:04.351Z,7.20
2022-08-17T19:40:58.657Z,7.95
2022-08-17T19:43:38.028Z,7.67
2022-08-17T19:46:43.139Z,7.50
2022-08-17T19:49:33.438Z,6.90
2022-08-17T19:52:16.928Z,6.97
2022-08-17T19:54:54.927Z,6.42
2022-08-17T19:57:36.939Z,6.70
2022-08-17T20:00:17.071Z,6.92
2022-08-17T20:03:06.322Z,7.22
2022-08-17T20:06:10.831Z,6.90
2022-08-17T20:08:22.681Z,8.35
2022-08-17T20:11:01.360Z,8.70
2022-08-17T20:13:37.075Z,9.05
2022-08-17T20:16:05.796Z,9.83
2022-08-17T20:18:48.138Z,10.23
2022-08-17T20:21:28.394Z,9.90
2022-08-17T20:24:30.296Z,10.43
2022-08-17T20:27:20.020Z,10.15
2022-08-17T20:30:09.829Z,8.83
2022-08-17T20:32:54.935Z,7.87
2022-08-17T20:35:28.159Z,8.05
2022-08-17T20:38:10.468Z,7.92
2022-08-17T20:40:56.920Z,7.90
2022-08-17T20:43:38.890Z,7.90
2022-08-17T20:46:37.778Z,8.15
2022-08-17T20:49:26.586Z,7.72
2022-08-17T20:52:07.336Z,8.53
2022-08-17T20:54:49.278Z,9.30
2022-08-17T20:57:37.712Z,13.15
2022-08-17T21:00:31.598Z,10.43
2022-08-17T21:03:26.146Z,8.58
2022-08-17T21:06:09.409Z,7.80
2022-08-17T21:08:45.887Z,8.78
2022-08-17T21:12:00.062Z,7.75
2022-08-17T21:14:16.939Z,7.62
2022-08-17T21:17:07.017Z,8.35
2022-08-17T21:20:17.089Z,9.50
2022-08-17T21:23:33.109Z,9.65
2022-08-17T21:26:29.649Z,10.25
2022-08-17T21:29:31.705Z,9.43
2022-08-17T21:32:05.391Z,8.90
2022-08-17T21:34:43.252Z,8.35
2022-08-17T21:37:30.971Z,7.17
2022-08-17T21:40:25.234Z,7.95
2022-08-17T21:43:00.977Z,8.18
2022-08-17T21:45:38.439Z,7.72
2022-08-17T21:48:17.260Z,7.87
2022-08-17T21:51:02.403Z,7.22
2022-08-17T21:53:53.242Z,8.20
2022-08-17T21:56:34.486Z,8.28
2022-08-17T21:59:10.194Z,7.55
2022-08-17T22:01:40.597Z,7.10
2022-08-17T22:04:26.153Z,7.12
2022-08-17T22:06:57.106Z,7.00
2022-08-17T22:09:32.866Z,7.92
2022-08-17T22:12:11.342Z,10.45
2022-08-17T22:14:53.370Z,10.28
2022-08-17T22:17:20.542Z,10.38
2022-08-17T22:19:56.240Z,9.48
2022-08-17T22:22:34.813Z,9.33
2022-08-17T22:25:07.060Z,12.00
2022-08-17T22:27:55.917Z,16.05
2022-08-17T22:30:40.309Z,13.95
2022-08-17T22:33:45.065Z,7.87
2022-08-17T22:36:34.590Z,7.40
2022-08-17T22:39:14.190Z,6.85
2022-08-17T22:41:59.610Z,7.05
2022-08-17T22:44:47.529Z,7.05
2022-08-17T22:47:26.783Z,7.87
2022-08-17T22:50:00.886Z,7.33
2022-08-17T22:53:02.257Z,7.33
2022-08-17T22:55:52.063Z,7.97
2022-08-17T22:58:41.907Z,8.00
2022-08-17T23:01:32.166Z,8.18
2022-08-17T23:04:06.629Z,7.28
2022-08-17T23:06:37.033Z,7.62
2022-08-17T23:09:06.874Z,7.85
2022-08-17T23:11:49.568Z,10.08
2022-08-17T23:14:11.888Z,13.78
2022-08-17T23:16:42.729Z,14.68
2022-08-17T23:19:17.498Z,13.75
2022-08-17T23:21:45.485Z,13.53
2022-08-17T23:24:21.294Z,10.72
2022-08-17T23:26:48.935Z,9.10
2022-08-17T23:29:16.855Z,8.50
2022-08-17T23:31:44.672Z,7.95
2022-08-17T23:34:14.662Z,8.43
2022-08-17T23:36:44.286Z,8.03
2022-08-17T23:39:12.002Z,7.35
2022-08-17T23:41:39.817Z,7.75
2022-08-17T23:44:07.640Z,7.37
2022-08-17T23:46:35.625Z,7.50
2022-08-17T23:49:03.917Z,7.45
2022-08-17T23:51:35.892Z,7.05
2022-08-17T23:54:10.515Z,6.53
2022-08-17T23:56:40.220Z,6.22
2022-08-17T23:59:07.983Z,6.62
